Terminal Aerodrome Forecast
Issued by NWS

Home | Current Version | Previous Version | Graphics & Text | Print | Product List | Glossary On
Versions: 1 2 3 4 5 6 7 8 9 10 11 12 13 14 15 16 17 18 19 20 21 22 23 24 25 26 27 28 29 30 31 32 33 34 35 36 37 38 39 40 41 42
000
FTUS43 KGRB 181720
TAFRHI
TAF
KRHI 181720Z 1818/1918 34010KT P6SM OVC015
     FM182300 32010KT P6SM BKN020
     FM190200 31009KT P6SM BKN025
     FM190800 30009KT P6SM BKN035
     FM191100 29008KT P6SM SCT035 BKN200
     FM191500 28009KT P6SM SCT035 BKN100=

USA.gov is the U.S. government's official web portal to all federal, state and local government web resources and services.